Airfield :
LOGIN :

Register | Disclaimer

   EN    FR    IT 

 










Legend :    VFR   Marginal VFR   IFR   Intensive IFR   Very Intensive IFR
Visi :
Ceiling :
>= 8 km
>= 3000ft
5 to 8 km
1000 to 3000 ft
1500m to 5 km
500 to 1000 ft
800 to 1500m
200 to 500 ft
< 800m
< 200 ft
Symbols :   Thunderstorms  Fog  Heavy snow  Heavy precipitations  Wind > 20 kt
SIGMETs :     Misc.  Thunderstorms  Icing  Turbulence  Mountain Waves  Volcanic Ashes






- Airport Elevation : 247 ft
- IATA code : BLL


EKBI - Billund

CURRENT METAR :
  • 190420Z 24006KT 9999 FEW004 FEW020CB BKN026 03/02 Q1002

EXPIRED METARs :
  • 190350Z 26006KT 9999 FEW005 BKN017 SCT020CB 03/02 Q1001
  • 190320Z 24009KT 220V280 9999 -SHRA BKN007 SCT020CB 03/02 Q1001
  • 190250Z 20006KT 170V230 9999 -SHRA BKN005 SCT020CB 04/03 Q1001
  • 190220Z 20005KT 180V240 9999 BKN017 FEW020CB 03/03 Q1001
  • 190150Z 21004KT 9999 -SHRA FEW008 BKN015 BKN017CB 03/03 Q1001

TAF AMD TAF EKBI
Valid from the 19 at 02:00 until the 20 at 00:00 UTC


190252Z 1902/1924 23012KT 9999 BKN020
TEMPO 1902/1906 4000 SHRAGS BKN005 BKN015CB
BECMG 1903/1906 27010KT
TEMPO 1906/1913 SCT020CB
TEMPO 1913/1918 27015G25KT 4000 SHRA BKN012 BKN020CB
TEMPO 1918/1924 SCT020CB



MET'MAP, your aeronautical weather chart ! - Copyright ORBIFLY December 2007 - Disclaimer

ORBIFLY MET'MAP TEAM :

Programming & Development : Alexandra Zaïnal
Concept & original design : Baudouin d'Aumeries
Assistance for programming : Marc-Olivier Méhu
Technical & hardware support : Manuel Goepfert

Contact : metmap@orbifly.com




SOURCES & CREDITS :

   NOAA